Terminal Aerodrome Forecast
Issued by NWS

Home | Current Version | Previous Version | Text Only | Print | Product List | Glossary On
Versions: 1 2 3 4 5 6 7 8 9 10 11 12 13 14 15 16
548
FTUS43 KEAX 251125
TAFSTJ
TAF
KSTJ 251125Z 2512/2612 14006KT P6SM BKN200
     FM251400 15010KT P6SM BKN080
     FM260100 22006KT P6SM VCTS OVC030CB
     FM260300 33007KT P6SM -SHRA VCTS OVC015CB
     FM260700 33009KT P6SM VCSH OVC008=

USA.gov is the U.S. government's official web portal to all federal, state and local government web resources and services.